createdAt,value
2022-10-09T00:01:12.294Z,99700.59
2022-10-09T00:03:42.158Z,99699.31
2022-10-09T00:06:13.415Z,99698.94
2022-10-09T00:08:41.406Z,99692.41
2022-10-09T00:11:14.218Z,99690.56
2022-10-09T00:13:41.781Z,99677.16
2022-10-09T00:16:10.784Z,99697.75
2022-10-09T00:18:38.143Z,99692.28
2022-10-09T00:21:06.392Z,99689.44
2022-10-09T00:23:33.458Z,99681.56
2022-10-09T00:26:01.761Z,99684.91
2022-10-09T00:28:34.248Z,99681.13
2022-10-09T00:31:11.505Z,99665.69
2022-10-09T00:33:38.682Z,99665.41
2022-10-09T00:36:07.411Z,99662.94
2022-10-09T00:38:34.823Z,99663.41
2022-10-09T00:41:01.944Z,99669.13
2022-10-09T00:43:42.624Z,99656.09
2022-10-09T00:46:50.919Z,99661.25
2022-10-09T00:49:34.680Z,99655.91
2022-10-09T00:52:05.160Z,99656.75
2022-10-09T00:54:36.569Z,99656.63
2022-10-09T00:57:04.041Z,99645.94
2022-10-09T00:59:31.855Z,99660.34
2022-10-09T01:01:58.894Z,99647.53
2022-10-09T01:04:26.275Z,99655.34
2022-10-09T01:07:40.144Z,99650.28
2022-10-09T01:10:27.456Z,99648.88
2022-10-09T01:13:12.807Z,99651.84
2022-10-09T01:16:04.734Z,99648.03
2022-10-09T01:18:47.574Z,99651.66
2022-10-09T01:21:17.594Z,99652.94
2022-10-09T01:24:07.758Z,99643.56
2022-10-09T01:27:10.601Z,99644.38
2022-10-09T01:29:49.659Z,99648.03
2022-10-09T01:32:23.428Z,99647.59
2022-10-09T01:34:52.827Z,99636.44
2022-10-09T01:37:22.447Z,99640.03
2022-10-09T01:39:51.667Z,99640.75
2022-10-09T01:42:21.177Z,99635.94
2022-10-09T01:44:48.186Z,99630.78
2022-10-09T01:47:18.318Z,99629.94
2022-10-09T01:50:21.238Z,99632.97
2022-10-09T01:52:56.024Z,99624.47
2022-10-09T01:55:26.836Z,99627.63
2022-10-09T01:58:00.979Z,99628.59
2022-10-09T02:00:33.525Z,99623.44
2022-10-09T02:03:03.101Z,99617.63
2022-10-09T02:05:32.241Z,99618.94
2022-10-09T02:08:00.348Z,99612.28
2022-10-09T02:10:27.840Z,99600.50
2022-10-09T02:13:00.581Z,99613.81
2022-10-09T02:15:42.204Z,99617.84
2022-10-09T02:18:13.956Z,99614.16
2022-10-09T02:20:48.099Z,99598.38
2022-10-09T02:23:16.804Z,99611.84
2022-10-09T02:25:44.197Z,99615.00
2022-10-09T02:28:11.437Z,99604.81
2022-10-09T02:30:59.121Z,99598.44
2022-10-09T02:33:34.021Z,99601.09
2022-10-09T02:36:02.030Z,99606.56
2022-10-09T02:38:29.282Z,99605.28
2022-10-09T02:41:01.092Z,99607.59
2022-10-09T02:43:29.055Z,99602.91
2022-10-09T02:45:55.980Z,99597.56
2022-10-09T02:48:22.862Z,99601.56
2022-10-09T02:50:49.884Z,99592.78
2022-10-09T02:53:16.878Z,99590.41
2022-10-09T02:55:43.817Z,99580.38
2022-10-09T02:58:10.735Z,99588.75
2022-10-09T03:00:41.156Z,99587.81
2022-10-09T03:03:08.163Z,99569.63
2022-10-09T03:05:35.209Z,99568.72
2022-10-09T03:08:02.149Z,99573.66
2022-10-09T03:10:29.061Z,99572.47
2022-10-09T03:12:56.081Z,99572.00
2022-10-09T03:15:23.138Z,99573.66
2022-10-09T03:17:50.234Z,99568.78
2022-10-09T03:20:17.447Z,99562.44
2022-10-09T03:22:44.345Z,99557.63
2022-10-09T03:25:11.373Z,99562.91
2022-10-09T03:27:38.392Z,99561.88
2022-10-09T03:30:06.064Z,99559.88
2022-10-09T03:32:33.193Z,99558.53
2022-10-09T03:35:00.164Z,99556.06
2022-10-09T03:37:27.226Z,99547.75
2022-10-09T03:39:54.220Z,99555.25
2022-10-09T03:42:21.185Z,99547.84
2022-10-09T03:44:48.200Z,99553.13
2022-10-09T03:47:18.271Z,99539.75
2022-10-09T03:49:45.444Z,99538.03
2022-10-09T03:52:14.618Z,99531.78
2022-10-09T03:54:41.609Z,99547.19
2022-10-09T03:57:11.078Z,99541.66
2022-10-09T03:59:38.102Z,99525.50
2022-10-09T04:02:05.153Z,99532.06
2022-10-09T04:04:32.168Z,99539.25
2022-10-09T04:06:59.244Z,99538.31
2022-10-09T04:09:26.252Z,99531.41
2022-10-09T04:11:53.246Z,99517.09
2022-10-09T04:14:20.432Z,99533.09
2022-10-09T04:16:47.413Z,99521.78
2022-10-09T04:19:14.474Z,99521.75
2022-10-09T04:21:41.575Z,99505.41
2022-10-09T04:24:08.784Z,99503.84
2022-10-09T04:26:36.052Z,99509.97
2022-10-09T04:29:03.324Z,99503.31
2022-10-09T04:31:32.553Z,99514.44
2022-10-09T04:33:59.668Z,99509.34
2022-10-09T04:36:26.542Z,99506.59
2022-10-09T04:38:53.601Z,99508.69
2022-10-09T04:41:20.602Z,99498.75
2022-10-09T04:43:47.563Z,99501.41
2022-10-09T04:46:15.903Z,99503.03
2022-10-09T04:48:45.548Z,99490.78
2022-10-09T04:51:13.337Z,99499.97
2022-10-09T04:53:41.247Z,99494.75
2022-10-09T04:56:15.378Z,99492.88
2022-10-09T04:58:43.212Z,99500.03
2022-10-09T05:01:23.145Z,99489.38
2022-10-09T05:03:51.080Z,99490.09
2022-10-09T05:06:20.035Z,99488.31
2022-10-09T05:08:47.516Z,99487.72
2022-10-09T05:11:17.592Z,99479.22
2022-10-09T05:13:47.586Z,99484.03
2022-10-09T05:16:17.145Z,99480.19
2022-10-09T05:18:46.563Z,99484.84
2022-10-09T05:21:13.797Z,99475.69
2022-10-09T05:23:40.687Z,99473.03
2022-10-09T05:26:17.286Z,99476.75
2022-10-09T05:28:45.264Z,99473.94
2022-10-09T05:31:19.339Z,99475.84
2022-10-09T05:33:46.446Z,99475.09
2022-10-09T05:36:13.801Z,99483.59
2022-10-09T05:38:43.022Z,99465.59
2022-10-09T05:41:15.708Z,99469.22
2022-10-09T05:43:44.966Z,99461.09
2022-10-09T05:46:23.572Z,99467.31
2022-10-09T05:48:59.136Z,99461.31
2022-10-09T05:51:31.233Z,99461.94
2022-10-09T05:53:59.139Z,99464.38
2022-10-09T05:56:29.102Z,99454.41
2022-10-09T05:59:25.412Z,99456.09
2022-10-09T06:01:54.914Z,99459.09
2022-10-09T06:04:24.326Z,99470.06
2022-10-09T06:06:51.549Z,99476.53
2022-10-09T06:09:24.412Z,99476.19
2022-10-09T06:11:53.303Z,99480.34
2022-10-09T06:14:24.531Z,99487.81
2022-10-09T06:16:51.713Z,99484.09
2022-10-09T06:19:20.280Z,99476.84
2022-10-09T06:21:47.854Z,99471.34
2022-10-09T06:24:28.748Z,99474.34
2022-10-09T06:26:57.566Z,99472.53
2022-10-09T06:29:25.307Z,99472.25
2022-10-09T06:31:52.257Z,99461.59
2022-10-09T06:34:19.316Z,99464.03
2022-10-09T06:36:46.287Z,99463.50
2022-10-09T06:39:13.342Z,99463.97
2022-10-09T06:41:40.637Z,99463.03
2022-10-09T06:44:23.395Z,99461.28
2022-10-09T06:46:52.115Z,99453.88
2022-10-09T06:49:19.190Z,99450.22
2022-10-09T06:51:46.353Z,99447.72
2022-10-09T06:54:17.327Z,99444.59
2022-10-09T06:56:44.779Z,99447.41
2022-10-09T06:59:12.473Z,99449.53
2022-10-09T07:01:39.736Z,99452.91
2022-10-09T07:04:11.774Z,99444.84
2022-10-09T07:06:44.158Z,99443.88
2022-10-09T07:09:13.251Z,99451.66
2022-10-09T07:11:45.965Z,99449.09
2022-10-09T07:14:16.007Z,99442.84
2022-10-09T07:16:46.007Z,99442.25
2022-10-09T07:19:14.456Z,99436.31
2022-10-09T07:21:44.422Z,99437.22
2022-10-09T07:24:12.820Z,99438.69
2022-10-09T07:26:42.936Z,99435.63
2022-10-09T07:29:13.128Z,99443.22
2022-10-09T07:31:40.147Z,99424.59
2022-10-09T07:34:07.432Z,99422.66
2022-10-09T07:36:37.069Z,99417.56
2022-10-09T07:39:05.484Z,99412.59
2022-10-09T07:41:32.412Z,99412.16
2022-10-09T07:43:59.433Z,99418.50
2022-10-09T07:46:33.016Z,99411.63
2022-10-09T07:49:00.732Z,99400.00
2022-10-09T07:51:31.271Z,99404.56
2022-10-09T07:54:00.346Z,99405.47
2022-10-09T07:56:32.496Z,99399.72
2022-10-09T07:59:02.366Z,99395.44
2022-10-09T08:01:30.682Z,99390.22
2022-10-09T08:03:59.043Z,99392.88
2022-10-09T08:06:27.139Z,99409.53
2022-10-09T08:08:56.256Z,99401.13
2022-10-09T08:11:25.525Z,99406.56
2022-10-09T08:13:54.920Z,99406.56
2022-10-09T08:16:23.974Z,99407.50
2022-10-09T08:18:58.029Z,99401.22
2022-10-09T08:21:26.264Z,99410.28
2022-10-09T08:23:55.205Z,99405.47
2022-10-09T08:26:23.864Z,99406.88
2022-10-09T08:28:52.354Z,99411.81
2022-10-09T08:31:20.420Z,99399.22
2022-10-09T08:33:47.571Z,99404.75
2022-10-09T08:36:18.045Z,99399.44
2022-10-09T08:38:47.885Z,99388.28
2022-10-09T08:41:27.139Z,99388.09
2022-10-09T08:44:10.644Z,99397.97
2022-10-09T08:46:43.814Z,99392.16
2022-10-09T08:49:22.772Z,99396.56
2022-10-09T08:51:50.720Z,99396.56
2022-10-09T08:54:34.574Z,99397.84
2022-10-09T08:57:05.426Z,99382.66
2022-10-09T08:59:32.546Z,99379.22
2022-10-09T09:02:06.334Z,99377.81
2022-10-09T09:04:36.506Z,99390.31
2022-10-09T09:07:39.407Z,99388.22
2022-10-09T09:10:26.199Z,99378.41
2022-10-09T09:13:11.832Z,99363.91
2022-10-09T09:15:47.558Z,99368.09
2022-10-09T09:18:14.604Z,99375.59
2022-10-09T09:21:25.943Z,99369.53
2022-10-09T09:23:52.905Z,99374.41
2022-10-09T09:26:22.179Z,99359.22
2022-10-09T09:28:55.714Z,99363.34
2022-10-09T09:31:31.491Z,99355.53
2022-10-09T09:34:09.110Z,99355.91
2022-10-09T09:36:54.417Z,99353.09
2022-10-09T09:40:08.243Z,99352.50
2022-10-09T09:42:14.859Z,99344.25
2022-10-09T09:44:59.499Z,99358.88
2022-10-09T09:47:36.541Z,99349.97
2022-10-09T09:50:06.627Z,99345.25
2022-10-09T09:52:41.424Z,99335.44
2022-10-09T09:55:25.089Z,99339.34
2022-10-09T09:57:52.231Z,99343.91
2022-10-09T10:00:23.346Z,99340.31
2022-10-09T10:02:51.054Z,99324.06
2022-10-09T10:05:24.735Z,99329.81
2022-10-09T10:07:53.095Z,99322.63
2022-10-09T10:10:25.367Z,99319.09
2022-10-09T10:12:53.134Z,99320.25
2022-10-09T10:15:33.462Z,99326.13
2022-10-09T10:18:07.249Z,99315.75
2022-10-09T10:20:44.588Z,99339.25
2022-10-09T10:23:49.214Z,99325.59
2022-10-09T10:26:37.544Z,99320.22
2022-10-09T10:29:21.824Z,99318.81
2022-10-09T10:32:16.580Z,99314.84
2022-10-09T10:34:49.619Z,99316.91
2022-10-09T10:37:44.216Z,99323.50
2022-10-09T10:40:20.310Z,99318.53
2022-10-09T10:42:47.188Z,99320.72
2022-10-09T10:45:26.886Z,99314.94
2022-10-09T10:47:59.568Z,99306.47
2022-10-09T10:50:36.448Z,99319.25
2022-10-09T10:53:33.675Z,99314.47
2022-10-09T10:56:08.428Z,99313.22
2022-10-09T10:59:02.515Z,99308.59
2022-10-09T11:01:44.375Z,99312.66
2022-10-09T11:04:17.206Z,99293.66
2022-10-09T11:07:16.532Z,99291.81
2022-10-09T11:10:22.245Z,99292.28
2022-10-09T11:12:58.192Z,99277.97
2022-10-09T11:15:51.832Z,99280.56
2022-10-09T11:18:46.965Z,99283.28
2022-10-09T11:21:18.626Z,99276.22
2022-10-09T11:24:21.145Z,99286.41
2022-10-09T11:27:11.826Z,99280.28
2022-10-09T11:29:53.059Z,99288.50
2022-10-09T11:32:28.772Z,99280.63
2022-10-09T11:35:11.608Z,99291.75
2022-10-09T11:37:48.758Z,99293.75
2022-10-09T11:40:26.019Z,99283.03
2022-10-09T11:43:27.815Z,99290.47
2022-10-09T11:46:02.781Z,99297.81
2022-10-09T11:49:13.926Z,99284.13
2022-10-09T11:51:51.971Z,99276.28
2022-10-09T11:54:23.994Z,99296.72
2022-10-09T11:56:57.985Z,99266.63
2022-10-09T11:59:32.267Z,99290.78
2022-10-09T12:02:28.477Z,99305.22
2022-10-09T12:04:58.646Z,99275.72
2022-10-09T12:07:36.844Z,99292.91
2022-10-09T12:10:20.188Z,99299.81
2022-10-09T12:12:57.848Z,99296.88
2022-10-09T12:15:40.709Z,99304.31
2022-10-09T12:18:32.301Z,99305.09
2022-10-09T12:21:06.297Z,99297.69
2022-10-09T12:23:36.612Z,99295.47
2022-10-09T12:26:05.505Z,99300.78
2022-10-09T12:29:06.537Z,99315.31
2022-10-09T12:31:42.919Z,99319.88
2022-10-09T12:34:28.004Z,99309.41
2022-10-09T12:37:57.701Z,99309.88
2022-10-09T12:40:33.597Z,99322.00
2022-10-09T12:43:12.706Z,99305.41
2022-10-09T12:45:47.665Z,99309.41
2022-10-09T12:48:25.436Z,99323.19
2022-10-09T12:50:53.097Z,99314.75
2022-10-09T12:53:26.847Z,99318.66
2022-10-09T12:56:00.743Z,99322.31
2022-10-09T12:58:38.974Z,99317.59
2022-10-09T13:01:13.008Z,99320.06
2022-10-09T13:03:54.766Z,99314.78
2022-10-09T13:06:26.130Z,99321.72
2022-10-09T13:09:05.247Z,99333.16
2022-10-09T13:11:40.547Z,99338.22
2022-10-09T13:14:24.943Z,99340.59
2022-10-09T13:16:52.219Z,99342.69
2022-10-09T13:19:37.673Z,99357.03
2022-10-09T13:22:20.845Z,99360.69
2022-10-09T13:24:52.631Z,99363.94
2022-10-09T13:27:26.849Z,99366.25
2022-10-09T13:29:55.199Z,99359.84
2022-10-09T13:32:24.433Z,99375.34
2022-10-09T13:34:57.395Z,99378.81
2022-10-09T13:37:26.315Z,99374.19
2022-10-09T13:39:56.547Z,99383.19
2022-10-09T13:42:30.327Z,99377.47
2022-10-09T13:44:58.245Z,99382.53
2022-10-09T13:47:25.411Z,99380.97
2022-10-09T13:49:52.422Z,99386.66
2022-10-09T13:52:19.592Z,99375.25
2022-10-09T13:54:47.869Z,99383.97
2022-10-09T13:57:18.126Z,99384.84
2022-10-09T13:59:45.503Z,99388.69
2022-10-09T14:02:13.135Z,99379.63
2022-10-09T14:04:40.574Z,99374.38
2022-10-09T14:07:10.941Z,99371.88
2022-10-09T14:09:43.594Z,99384.75
2022-10-09T14:12:14.297Z,99382.75
2022-10-09T14:14:47.824Z,99381.69
2022-10-09T14:17:18.720Z,99371.94
2022-10-09T14:19:49.732Z,99378.06
2022-10-09T14:22:19.211Z,99393.25
2022-10-09T14:25:05.090Z,99378.00
2022-10-09T14:27:37.434Z,99380.75
2022-10-09T14:30:18.939Z,99390.66
2022-10-09T14:32:46.785Z,99393.38
2022-10-09T14:35:16.961Z,99399.19
2022-10-09T14:37:47.691Z,99396.31
2022-10-09T14:40:15.323Z,99409.59
2022-10-09T14:42:42.488Z,99414.38
2022-10-09T14:45:13.373Z,99414.66
2022-10-09T14:47:53.808Z,99419.88
2022-10-09T14:50:21.207Z,99424.22
2022-10-09T14:52:48.445Z,99428.84
2022-10-09T14:55:15.772Z,99422.41
2022-10-09T14:57:43.879Z,99430.91
2022-10-09T15:00:11.751Z,99428.72
2022-10-09T15:05:10.176Z,99435.16
2022-10-09T15:07:42.982Z,99453.84
2022-10-09T15:10:16.097Z,99454.31
2022-10-09T15:13:04.309Z,99439.03
2022-10-09T15:15:32.841Z,99435.56
2022-10-09T15:18:00.047Z,99452.94
2022-10-09T15:20:27.355Z,99463.09
2022-10-09T15:23:03.536Z,99468.66
2022-10-09T15:26:05.084Z,99452.97
2022-10-09T15:28:54.656Z,99480.50
2022-10-09T15:32:04.328Z,99449.28
2022-10-09T15:34:31.473Z,99480.94
2022-10-09T15:37:01.133Z,99472.25
2022-10-09T15:39:28.213Z,99472.25
2022-10-09T15:41:57.456Z,99471.81
2022-10-09T15:44:27.349Z,99475.56
2022-10-09T15:46:54.638Z,99472.25
2022-10-09T15:49:21.710Z,99470.81
2022-10-09T15:51:49.178Z,99477.25
2022-10-09T15:54:16.879Z,99484.31
2022-10-09T15:56:43.944Z,99483.69
2022-10-09T15:59:12.989Z,99488.47
2022-10-09T16:01:40.263Z,99483.50
2022-10-09T16:04:07.297Z,99480.00
2022-10-09T16:06:37.230Z,99490.53
2022-10-09T16:09:04.818Z,99485.16
2022-10-09T16:11:34.933Z,99484.75
2022-10-09T16:14:02.224Z,99492.59
2022-10-09T16:16:30.043Z,99490.97
2022-10-09T16:19:04.757Z,99498.84
2022-10-09T16:21:32.437Z,99484.34
2022-10-09T16:24:07.823Z,99498.00
2022-10-09T16:26:52.438Z,99493.03
2022-10-09T16:29:23.835Z,99493.25
2022-10-09T16:31:51.591Z,99489.75
2022-10-09T16:34:18.633Z,99490.34
2022-10-09T16:36:45.691Z,99494.31
2022-10-09T16:39:12.955Z,99491.19
2022-10-09T16:41:42.127Z,99501.94
2022-10-09T16:44:14.296Z,99501.75
2022-10-09T16:46:43.889Z,99493.03
2022-10-09T16:49:21.246Z,99504.22
2022-10-09T16:51:51.759Z,99497.19
2022-10-09T16:54:18.983Z,99503.59
2022-10-09T16:56:46.311Z,99501.53
2022-10-09T16:59:13.999Z,99504.22
2022-10-09T17:01:47.996Z,99489.75
2022-10-09T17:04:18.751Z,99502.59
2022-10-09T17:06:51.087Z,99497.19
2022-10-09T17:09:19.426Z,99499.25
2022-10-09T17:11:56.210Z,99495.53
2022-10-09T17:14:28.856Z,99503.81
2022-10-09T17:16:56.194Z,99508.81
2022-10-09T17:19:23.480Z,99507.56
2022-10-09T17:21:51.345Z,99510.03
2022-10-09T17:24:18.499Z,99505.06
2022-10-09T17:26:45.987Z,99503.81
2022-10-09T17:29:14.278Z,99501.34
2022-10-09T17:31:41.473Z,99508.38
2022-10-09T17:34:16.359Z,99512.94
2022-10-09T17:36:53.054Z,99517.69
2022-10-09T17:42:20.110Z,99510.88
2022-10-09T17:44:51.975Z,99514.59
2022-10-09T17:47:26.119Z,99511.09
2022-10-09T17:49:57.592Z,99514.19
2022-10-09T17:52:25.703Z,99514.63
2022-10-09T17:54:57.043Z,99523.72
2022-10-09T17:57:24.441Z,99516.47
2022-10-09T17:59:51.477Z,99525.59
2022-10-09T18:02:22.214Z,99526.22
2022-10-09T18:04:55.182Z,99523.53
2022-10-09T18:11:33.055Z,99510.06
2022-10-09T18:14:09.850Z,99506.78
2022-10-09T18:16:40.022Z,99539.06
2022-10-09T18:19:15.875Z,99534.72
2022-10-09T18:21:51.438Z,99520.41
2022-10-09T18:24:29.480Z,99510.91
2022-10-09T18:27:08.112Z,99518.97
2022-10-09T18:29:43.674Z,99534.72
2022-10-09T18:32:15.866Z,99545.88
2022-10-09T18:34:46.473Z,99544.44
2022-10-09T18:37:20.671Z,99547.72
2022-10-09T18:39:52.498Z,99550.22
2022-10-09T18:42:59.956Z,99549.59
2022-10-09T18:45:50.190Z,99567.19
2022-10-09T18:48:19.033Z,99534.06
2022-10-09T18:50:46.101Z,99555.63
2022-10-09T18:53:13.345Z,99565.97
2022-10-09T18:55:42.776Z,99568.44
2022-10-09T18:58:10.276Z,99572.75
2022-10-09T19:00:39.526Z,99579.41
2022-10-09T19:03:11.700Z,99583.75
2022-10-09T19:05:38.959Z,99580.41
2022-10-09T19:08:06.190Z,99585.81
2022-10-09T19:10:33.181Z,99576.91
2022-10-09T19:13:01.075Z,99585.81
2022-10-09T19:15:28.193Z,99585.38
2022-10-09T19:17:58.287Z,99586.22
2022-10-09T19:20:25.405Z,99583.75
2022-10-09T19:22:52.409Z,99588.91
2022-10-09T19:25:19.497Z,99584.38
2022-10-09T19:27:46.484Z,99584.56
2022-10-09T19:30:16.427Z,99589.75
2022-10-09T19:32:43.474Z,99592.00
2022-10-09T19:35:13.206Z,99587.44
2022-10-09T19:37:40.254Z,99596.97
2022-10-09T19:40:07.821Z,99598.00
2022-10-09T19:42:34.837Z,99595.09
2022-10-09T19:45:01.801Z,99598.44
2022-10-09T19:47:29.998Z,99585.81
2022-10-09T19:49:57.047Z,99593.25
2022-10-09T19:52:27.020Z,99596.16
2022-10-09T19:54:54.599Z,99597.38
2022-10-09T19:57:24.036Z,99594.69
2022-10-09T19:59:51.043Z,99598.00
2022-10-09T20:02:18.011Z,99599.06
2022-10-09T20:04:48.773Z,99593.25
2022-10-09T20:07:15.757Z,99601.75
2022-10-09T20:09:42.732Z,99603.00
2022-10-09T20:12:10.566Z,99603.00
2022-10-09T20:14:37.558Z,99609.19
2022-10-09T20:17:04.559Z,99603.22
2022-10-09T20:19:31.829Z,99609.19
2022-10-09T20:21:58.795Z,99604.44
2022-10-09T20:24:25.876Z,99610.22
2022-10-09T20:26:53.305Z,99599.66
2022-10-09T20:29:20.414Z,99594.09
2022-10-09T20:31:48.944Z,99593.25
2022-10-09T20:34:16.959Z,99593.03
2022-10-09T20:36:44.054Z,99605.03
2022-10-09T20:39:13.925Z,99596.16
2022-10-09T20:41:42.351Z,99597.19
2022-10-09T20:44:11.007Z,99602.56
2022-10-09T20:46:41.715Z,99596.56
2022-10-09T20:49:13.130Z,99599.88
2022-10-09T20:51:42.362Z,99606.28
2022-10-09T20:54:16.402Z,99591.97
2022-10-09T20:56:50.130Z,99601.94
2022-10-09T20:59:20.144Z,99601.94
2022-10-09T21:01:47.834Z,99605.25
2022-10-09T21:04:14.941Z,99606.66
2022-10-09T21:06:42.465Z,99610.63
2022-10-09T21:09:09.566Z,99609.16
2022-10-09T21:11:36.507Z,99608.53
2022-10-09T21:14:03.794Z,99601.09
2022-10-09T21:16:30.884Z,99605.25
2022-10-09T21:19:00.639Z,99605.66
2022-10-09T21:21:29.010Z,99608.97
2022-10-09T21:23:58.261Z,99606.28
2022-10-09T21:26:26.688Z,99599.06
2022-10-09T21:28:59.085Z,99610.22
2022-10-09T21:31:31.335Z,99618.47
2022-10-09T21:33:59.874Z,99618.06
2022-10-09T21:36:47.122Z,99624.69
2022-10-09T21:39:25.179Z,99626.34
2022-10-09T21:41:52.303Z,99630.47
2022-10-09T21:44:19.251Z,99634.84
2022-10-09T21:46:46.422Z,99633.38
2022-10-09T21:49:22.278Z,99636.06
2022-10-09T21:51:50.252Z,99630.88
2022-10-09T21:54:17.613Z,99631.69
2022-10-09T21:56:44.554Z,99645.78
2022-10-09T21:59:11.601Z,99646.19
2022-10-09T22:01:38.576Z,99651.97
2022-10-09T22:04:05.878Z,99653.59
2022-10-09T22:06:32.792Z,99650.72
2022-10-09T22:09:00.409Z,99665.84
2022-10-09T22:11:27.575Z,99649.91
2022-10-09T22:13:55.594Z,99658.81
2022-10-09T22:16:22.734Z,99664.59
2022-10-09T22:18:49.593Z,99661.25
2022-10-09T22:21:17.046Z,99678.63
2022-10-09T22:23:44.123Z,99674.69
2022-10-09T22:26:14.887Z,99669.31
2022-10-09T22:28:41.984Z,99676.31
2022-10-09T22:31:17.300Z,99685.41
2022-10-09T22:33:44.678Z,99685.19
2022-10-09T22:36:14.688Z,99690.56
2022-10-09T22:38:44.022Z,99688.50
2022-10-09T22:41:17.576Z,99701.94
2022-10-09T22:43:47.166Z,99699.66
2022-10-09T22:46:25.410Z,99696.56
2022-10-09T22:48:53.451Z,99701.97
2022-10-09T22:51:26.243Z,99716.88
2022-10-09T22:53:54.503Z,99710.66
2022-10-09T22:56:28.115Z,99722.25
2022-10-09T22:58:55.135Z,99714.59
2022-10-09T23:01:31.587Z,99720.63
2022-10-09T23:04:00.990Z,99716.25
2022-10-09T23:06:28.521Z,99726.00
2022-10-09T23:08:56.598Z,99728.84
2022-10-09T23:11:24.181Z,99731.13
2022-10-09T23:13:56.721Z,99729.66
2022-10-09T23:16:25.169Z,99726.53
2022-10-09T23:18:52.251Z,99724.28
2022-10-09T23:21:22.225Z,99722.22
2022-10-09T23:23:50.075Z,99718.25
2022-10-09T23:26:23.210Z,99734.38
2022-10-09T23:28:52.308Z,99732.53
2022-10-09T23:31:19.717Z,99735.66
2022-10-09T23:33:50.664Z,99728.19
2022-10-09T23:36:23.311Z,99732.16
2022-10-09T23:38:51.260Z,99732.16
2022-10-09T23:41:21.007Z,99737.53
2022-10-09T23:43:49.671Z,99736.25
2022-10-09T23:46:22.770Z,99733.78
2022-10-09T23:48:51.280Z,99734.44
2022-10-09T23:51:20.098Z,99736.25
2022-10-09T23:53:47.621Z,99745.38
2022-10-09T23:56:17.305Z,99753.66
2022-10-09T23:58:45.217Z,99753.25
